Time;durP1;ratioP1;P1;durP2;ratioP2;P2;SDS_P1;SDS_P2;PMS_P1;PMS_P2;Temp;Humidity;BMP_temperature;BMP_pressure;BME280_temperature;BME280_humidity;BME280_pressure;Samples;Min_cycle;Max_cycle;Signal;HPM_P1;HPM_P2
2021/08/25 00:02:24;;;;;;;;;;;;;;;14.59;69.93;102089.06;15749754;28;20079;-63
2021/08/25 00:09:58;;;;;;;1999.90;999.90;;;;;;;14.57;70.32;102085.72;15744482;28;19928;-62
2021/08/25 00:17:31;;;;;;;1999.90;999.90;;;;;;;14.41;70.45;102082.53;15745674;28;20049;-63
2021/08/25 00:25:05;;;;;;;1999.90;999.90;;;;;;;14.43;69.94;102073.75;15743774;28;20064;-63
2021/08/25 00:32:38;;;;;;;1999.90;999.90;;;;;;;14.28;70.85;102063.00;15748708;28;20544;-63
2021/08/25 00:40:15;;;;;;;1999.90;999.90;;;;;;;14.26;70.23;102056.84;15746196;28;20115;-63
2021/08/25 00:47:50;;;;;;;1999.90;999.90;;;;;;;14.16;71.04;102046.75;15746330;28;20125;-62
2021/08/25 00:55:25;;;;;;;1999.90;999.90;;;;;;;14.12;70.86;102037.34;15745818;28;20516;-63
2021/08/25 01:03:21;;;;;;;1999.90;999.90;;;;;;;14.10;70.93;102039.66;15745007;28;20048;-63
2021/08/25 01:11:07;;;;;;;1999.90;999.90;;;;;;;13.98;71.16;102033.84;15745603;28;20040;-64
2021/08/25 01:18:40;;;;;;;1999.90;999.90;;;;;;;13.86;71.04;102020.41;15745328;28;20032;-62
2021/08/25 01:26:17;;;;;;;1999.90;999.90;;;;;;;13.71;71.14;102009.59;15744368;28;20076;-63
2021/08/25 01:34:02;;;;;;;1999.90;999.90;;;;;;;13.61;71.49;102004.28;15741290;28;20048;-61
2021/08/25 01:41:37;;;;;;;1999.90;999.90;;;;;;;13.36;72.01;101997.41;15740642;28;20093;-62
2021/08/25 01:49:18;;;;;;;1999.90;999.90;;;;;;;13.45;71.60;102001.91;15741191;28;20517;-61
2021/08/25 01:56:53;;;;;;;1999.90;999.90;;;;;;;13.26;71.95;101992.88;15738706;28;20075;-60
2021/08/25 02:04:31;;;;;;;1999.90;999.90;;;;;;;13.21;71.77;101993.81;15724372;28;20053;-61
2021/08/25 02:12:09;;;;;;;1999.90;999.90;;;;;;;13.15;71.62;101997.91;15743076;28;20052;-61
2021/08/25 02:19:43;;;;;;;1999.90;999.90;;;;;;;13.03;71.78;101980.00;15742090;28;20033;-61
2021/08/25 02:27:15;;;;;;;1999.90;999.90;;;;;;;13.07;72.65;101965.03;15756852;28;20048;-61
2021/08/25 02:34:49;;;;;;;1999.90;999.90;;;;;;;12.98;73.09;101950.13;15742223;28;20040;-62
2021/08/25 02:42:31;;;;;;;1999.90;999.90;;;;;;;13.04;72.24;101945.25;15741072;28;20102;-62
2021/08/25 02:50:51;;;;;;;1999.90;999.90;;;;;;;12.91;72.48;101938.53;15740894;28;20127;-63
2021/08/25 02:59:14;;;;;;;1999.90;999.90;;;;;;;12.71;72.46;101932.34;15729489;28;20102;-62
2021/08/25 03:06:49;;;;;;;1999.90;999.90;;;;;;;12.61;72.05;101924.19;15743583;28;20667;-63
2021/08/25 03:14:22;;;;;;;1999.90;999.90;;;;;;;12.47;72.32;101914.16;15751283;28;20128;-61
2021/08/25 03:21:55;;;;;;;1999.90;999.90;;;;;;;12.29;72.76;101900.00;15752929;28;20504;-61
2021/08/25 03:29:27;;;;;;;;;;;;;;;12.42;72.70;101892.72;15750450;28;20036;-61
2021/08/25 03:37:01;;;;;;;1999.90;999.90;;;;;;;12.14;73.87;101883.59;15751281;28;20096;-61
2021/08/25 03:44:33;;;;;;;1999.90;999.90;;;;;;;12.28;72.92;101889.13;15751699;28;20050;-60
2021/08/25 03:52:07;;;;;;;1999.90;999.90;;;;;;;12.18;73.26;101883.78;15751984;28;20044;-63
2021/08/25 03:59:39;;;;;;;1999.90;999.90;;;;;;;12.11;73.00;101882.25;15754272;28;20497;-61
2021/08/25 04:07:13;;;;;;;1999.90;999.90;;;;;;;12.15;72.64;101876.84;15747865;28;20162;-61
2021/08/25 04:14:45;;;;;;;1999.90;999.90;;;;;;;11.95;73.06;101880.13;15743551;28;20048;-61
2021/08/25 04:22:47;;;;;;;1999.90;999.90;;;;;;;11.93;73.33;101882.41;15745791;28;20044;-59
2021/08/25 04:30:21;;;;;;;1999.90;999.90;;;;;;;11.96;73.17;101870.56;15740327;28;20053;-60
2021/08/25 04:38:28;;;;;;;;;;;;;;;12.14;72.89;101878.00;15743885;28;20044;-58
2021/08/25 04:46:26;;;;;;;1999.90;999.90;;;;;;;12.24;72.56;101879.72;15740143;28;20015;-59
2021/08/25 04:54:13;;;;;;;1999.90;999.90;;;;;;;12.51;72.39;101868.44;15732904;28;20064;-59
2021/08/25 05:11:14;;;;;;;;;;;;;;;;;;;;;
2021/08/25 05:18:53;;;;;;;1999.90;999.90;;;;;;;13.27;71.44;101834.75;15725304;28;20064;-60
2021/08/25 05:26:25;;;;;;;1999.90;999.90;;;;;;;13.65;71.37;101832.25;15739821;28;20049;-61
2021/08/25 05:33:59;;;;;;;1999.90;999.90;;;;;;;14.00;71.61;101824.69;15738240;28;20086;-57
2021/08/25 05:41:31;;;;;;;1999.90;999.90;;;;;;;14.44;71.25;101829.13;15739222;28;20044;-60
2021/08/25 05:49:28;;;;;;;1999.90;999.90;;;;;;;14.46;71.07;101827.97;15721987;28;20145;-59
2021/08/25 05:58:02;;;;;;;;;;;;;;;;;;;;;
2021/08/25 06:05:47;;;;;;;1999.90;999.90;;;;;;;15.99;67.00;101803.47;15726488;28;20056;-62
2021/08/25 06:21:44;;;;;;;1999.90;999.90;;;;;;;17.29;63.18;101805.72;15736944;28;20131;-63
2021/08/25 06:29:21;;;;;;;1999.90;999.90;;;;;;;17.62;63.01;101805.59;15721750;28;20807;-64
2021/08/25 06:37:01;;;;;;;1999.90;999.90;;;;;;;18.06;62.38;101802.94;15750528;28;20052;-61
2021/08/25 06:44:33;;;;;;;1999.90;999.90;;;;;;;17.76;63.07;101782.66;15748349;28;20123;-60
2021/08/25 06:52:13;;;;;;;1999.90;999.90;;;;;;;17.90;63.21;101791.56;15747515;28;20071;-63
2021/08/25 06:59:45;;;;;;;1999.90;999.90;;;;;;;17.87;61.92;101787.47;15745725;28;20524;-60
2021/08/25 07:07:19;;;;;;;1999.90;999.90;;;;;;;18.11;59.26;101775.25;15745392;28;20045;-63
2021/08/25 07:15:15;;;;;;;1999.90;999.90;;;;;;;18.68;59.29;101768.41;15745302;28;20481;-61
2021/08/25 07:23:16;;;;;;;1999.90;999.90;;;;;;;18.99;54.92;101753.47;15745067;28;20089;-63
2021/08/25 07:30:48;;;;;;;1999.90;999.90;;;;;;;19.05;54.88;101742.69;15744410;28;20048;-60
2021/08/25 07:38:32;;;;;;;1999.90;999.90;;;;;;;18.97;54.28;101741.69;15746796;28;20422;-60
2021/08/25 07:46:14;;;;;;;1999.90;999.90;;;;;;;18.93;55.33;101742.78;15743953;28;20070;-60
2021/08/25 07:53:53;;;;;;;1999.90;999.90;;;;;;;19.34;54.49;101735.72;15744598;28;20505;-62
2021/08/25 08:01:25;;;;;;;1999.90;999.90;;;;;;;18.97;51.98;101729.56;15752734;28;20044;-61
2021/08/25 08:08:59;;;;;;;1999.90;999.90;;;;;;;20.10;52.02;101708.66;15740864;28;20059;-61
2021/08/25 08:16:33;;;;;;;1999.90;999.90;;;;;;;20.36;51.59;101698.66;15742949;28;20056;-62
2021/08/25 08:24:07;;;;;;;1999.90;999.90;;;;;;;20.60;49.31;101691.81;15742220;28;20046;-62
2021/08/25 08:31:39;;;;;;;1999.90;999.90;;;;;;;19.85;51.45;101694.00;15739052;28;20049;-63
2021/08/25 08:39:13;;;;;;;1999.90;999.90;;;;;;;20.11;50.98;101686.81;15733387;28;20048;-62
2021/08/25 08:46:48;;;;;;;1999.90;999.90;;;;;;;20.18;51.27;101679.28;15731211;28;20131;-62
2021/08/25 08:54:22;;;;;;;1999.90;999.90;;;;;;;20.14;51.62;101678.41;15723583;28;20040;-61
2021/08/25 09:01:55;;;;;;;1999.90;999.90;;;;;;;20.80;51.63;101667.03;15751002;28;20049;-63
2021/08/25 09:09:54;;;;;;;1999.90;999.90;;;;;;;20.84;49.88;101663.06;15736290;28;20044;-61
2021/08/25 09:17:28;;;;;;;1999.90;999.90;;;;;;;21.11;51.60;101643.19;15755685;28;20044;-60
2021/08/25 09:33:18;;;;;;;1999.90;999.90;;;;;;;20.42;50.74;101626.25;15919483;27;20341;-62
2021/08/25 09:40:54;;;;;;;1999.90;999.90;;;;;;;20.64;53.27;101618.97;15914901;28;20054;-62
2021/08/25 09:48:34;;;;;;;1999.90;999.90;;;;;;;20.15;54.21;101614.06;15918357;27;20046;-61
2021/08/25 09:56:27;;;;;;;1999.90;999.90;;;;;;;19.93;53.14;101597.84;15906605;28;20053;-61
2021/08/25 10:04:04;;;;;;;1999.90;999.90;;;;;;;20.12;53.03;101592.16;15865256;28;20085;-62
2021/08/25 10:11:39;;;;;;;1999.90;999.90;;;;;;;19.76;53.38;101570.81;15915632;28;20126;-62
2021/08/25 10:19:28;;;;;;;1999.90;999.90;;;;;;;20.79;54.39;101551.94;15914612;27;20104;-62
2021/08/25 10:27:08;;;;;;;1999.90;999.90;;;;;;;20.58;52.92;101541.91;15851258;28;20121;-62
2021/08/25 10:35:05;;;;;;;1999.90;999.90;;;;;;;20.33;53.47;101533.00;15853125;28;20093;-61
2021/08/25 10:42:53;;;;;;;1999.90;999.90;;;;;;;20.73;52.59;101508.91;15850552;28;20042;-62
2021/08/25 10:50:51;;;;;;;1999.90;999.90;;;;;;;21.15;52.54;101473.78;15865527;28;20127;-62
2021/08/25 10:58:41;;;;;;;1999.90;999.90;;;;;;;20.73;52.73;101467.19;15832868;28;20131;-61
2021/08/25 11:06:27;;;;;;;1999.90;999.90;;;;;;;20.32;52.85;101448.34;15869521;28;20059;-62
2021/08/25 11:14:00;;;;;;;1999.90;999.90;;;;;;;20.95;52.63;101437.09;15842061;28;20048;-62
2021/08/25 11:21:33;;;;;;;1999.90;999.90;;;;;;;21.64;51.19;101416.75;15853172;28;20416;-61
2021/08/25 11:29:05;;;;;;;1999.90;999.90;;;;;;;22.79;49.44;101401.28;15812357;28;20047;-63
2021/08/25 11:36:52;;;;;;;1999.90;999.90;;;;;;;23.51;45.09;101377.47;15860292;28;20450;-63
2021/08/25 11:44:41;;;;;;;1999.90;999.90;;;;;;;24.86;43.21;101360.13;15850274;28;20054;-63
2021/08/25 11:52:16;;;;;;;1999.90;999.90;;;;;;;25.95;41.87;101334.03;15863198;28;20415;-62
2021/08/25 12:00:00;;;;;;;1999.90;999.90;;;;;;;26.07;42.08;101312.66;15851693;28;20039;-62
2021/08/25 12:07:34;;;;;;;1999.90;999.90;;;;;;;26.19;41.00;101292.09;15844979;28;20040;-62
2021/08/25 12:15:10;;;;;;;1999.90;999.90;;;;;;;26.92;40.91;101305.84;15864572;28;20378;-61
2021/08/25 12:23:03;;;;;;;1999.90;999.90;;;;;;;25.41;42.55;101293.66;15862656;28;20130;-63
2021/08/25 12:30:35;;;;;;;1999.90;999.90;;;;;;;25.41;42.78;101258.56;15856956;28;20051;-62
2021/08/25 12:38:09;;;;;;;;;;;;;;;24.31;44.46;101243.03;15857070;28;20054;-62
2021/08/25 12:45:41;;;;;;;1999.90;999.90;;;;;;;23.89;47.23;101219.97;15818416;28;19924;-62
2021/08/25 12:53:15;;;;;;;1999.90;999.90;;;;;;;24.45;44.94;101208.72;15825235;28;20122;-62
2021/08/25 13:00:47;;;;;;;1999.90;999.90;;;;;;;25.44;43.24;101192.03;15786427;28;20055;-61
2021/08/25 13:08:20;;;;;;;1999.90;999.90;;;;;;;27.71;38.69;101178.47;15804214;28;20048;-61
2021/08/25 13:15:52;;;;;;;1999.90;999.90;;;;;;;26.35;41.30;101168.47;15794253;28;20060;-63
2021/08/25 13:23:26;;;;;;;1999.90;999.90;;;;;;;30.72;34.02;101162.38;15797615;28;20117;-63
2021/08/25 13:30:58;;;;;;;1999.90;999.90;;;;;;;25.63;42.20;101152.22;15793717;28;20123;-62
2021/08/25 13:38:32;;;;;;;1999.90;999.90;;;;;;;26.72;40.43;101144.63;15792394;28;20081;-64
2021/08/25 13:46:04;;;;;;;1999.90;999.90;;;;;;;27.17;39.15;101127.09;15795825;28;20503;-63
2021/08/25 13:53:37;;;;;;;1999.90;999.90;;;;;;;27.64;39.92;101104.88;15792528;28;20441;-61
2021/08/25 14:01:10;;;;;;;1999.90;999.90;;;;;;;26.39;40.38;101084.25;15786294;28;20051;-62
2021/08/25 14:08:43;;;;;;;1999.90;999.90;;;;;;;25.46;42.13;101081.03;15797946;28;20058;-63
2021/08/25 14:16:15;;;;;;;1999.90;999.90;;;;;;;24.42;42.79;101061.25;15788336;28;20098;-62
2021/08/25 14:23:49;;;;;;;1999.90;999.90;;;;;;;24.39;42.38;101040.09;15811413;28;20051;-63
2021/08/25 14:31:21;;;;;;;1999.90;999.90;;;;;;;24.44;41.97;101018.84;15811647;28;20060;-63
2021/08/25 14:38:55;;;;;;;1999.90;999.90;;;;;;;24.38;42.23;101020.53;15811963;28;20513;-63
2021/08/25 14:46:27;;;;;;;1999.90;999.90;;;;;;;24.76;42.23;101007.13;15811034;28;20056;-63
2021/08/25 14:54:01;;;;;;;1999.90;999.90;;;;;;;24.42;42.44;100987.09;15811507;28;20508;-62
2021/08/25 15:01:34;;;;;;;1999.90;999.90;;;;;;;24.19;43.44;100971.38;15809505;28;20119;-62
2021/08/25 15:09:08;;;;;;;1999.90;999.90;;;;;;;23.96;43.94;100961.78;15809806;28;20405;-63
2021/08/25 15:16:41;;;;;;;1999.90;999.90;;;;;;;23.88;44.46;100950.47;15810312;28;20714;-63
2021/08/25 15:24:14;;;;;;;1999.90;999.90;;;;;;;24.00;44.31;100946.28;15765778;28;20046;-62
2021/08/25 15:31:47;;;;;;;1999.90;999.90;;;;;;;23.99;45.70;100941.81;15806313;27;20048;-62
2021/08/25 15:39:21;;;;;;;1999.90;999.90;;;;;;;23.38;45.72;100926.34;15777854;28;20040;-62
2021/08/25 15:46:56;;;;;;;1999.90;999.90;;;;;;;23.51;46.48;100916.09;15788700;28;20048;-62
2021/08/25 15:54:30;;;;;;;1999.90;999.90;;;;;;;23.35;45.73;100898.72;15803290;28;20048;-62
2021/08/25 16:02:02;;;;;;;1999.90;999.90;;;;;;;23.35;45.99;100887.34;15793036;28;20404;-62
2021/08/25 16:09:36;;;;;;;;;;;;;;;23.68;46.49;100865.97;15804422;28;20038;-60
2021/08/25 16:17:08;;;;;;;1999.90;999.90;;;;;;;23.54;46.52;100856.25;15805819;28;19927;-62
2021/08/25 16:24:42;;;;;;;1999.90;999.90;;;;;;;23.24;47.88;100858.91;15769761;28;20085;-60
2021/08/25 16:32:14;;;;;;;1999.90;999.90;;;;;;;22.91;48.02;100831.88;15805066;28;20040;-63
2021/08/25 16:39:48;;;;;;;1999.90;999.90;;;;;;;22.86;48.18;100818.91;15801018;28;20040;-62
2021/08/25 16:47:20;;;;;;;1999.90;999.90;;;;;;;22.92;50.65;100816.41;15774059;28;20163;-62
2021/08/25 16:54:54;;;;;;;1999.90;999.90;;;;;;;22.67;48.93;100813.69;15764561;28;20049;-62
2021/08/25 17:02:26;;;;;;;1999.90;999.90;;;;;;;22.72;49.75;100802.72;15780888;28;20515;-62
2021/08/25 17:10:01;;;;;;;;;;;;;;;21.87;51.58;100797.25;15740982;28;20532;-63
2021/08/25 17:17:34;;;;;;;1999.90;999.90;;;;;;;22.10;51.74;100779.81;15771807;28;19920;-63
2021/08/25 17:25:10;;;;;;;1999.90;999.90;;;;;;;21.54;51.53;100770.94;15783482;28;20041;-63
2021/08/25 17:32:42;;;;;;;1999.90;999.90;;;;;;;21.72;52.25;100768.09;15835631;28;20081;-60
2021/08/25 17:40:16;;;;;;;;;;;;;;;21.85;52.48;100760.75;15847691;28;20040;-65
2021/08/25 17:47:48;;;;;;;1999.90;999.90;;;;;;;21.89;52.01;100758.72;15855533;28;19920;-64
2021/08/25 17:55:22;;;;;;;1999.90;999.90;;;;;;;21.70;53.26;100753.47;15866417;28;20032;-64
2021/08/25 18:02:56;;;;;;;1999.90;999.90;;;;;;;21.76;53.53;100751.84;15867092;28;20063;-63
2021/08/25 18:10:30;;;;;;;1999.90;999.90;;;;;;;21.28;54.15;100771.34;15867185;28;20090;-63
2021/08/25 18:18:05;;;;;;;1999.90;999.90;;;;;;;20.98;54.96;100761.16;15851974;28;20067;-62
2021/08/25 18:25:38;;;;;;;1999.90;999.90;;;;;;;21.16;55.34;100755.50;15851449;28;20040;-61
2021/08/25 18:33:10;;;;;;;1999.90;999.90;;;;;;;20.91;56.04;100757.50;15860048;28;20040;-63
2021/08/25 18:40:44;;;;;;;1999.90;999.90;;;;;;;20.80;56.19;100740.47;15853488;28;20140;-62
2021/08/25 18:48:22;;;;;;;1999.90;999.90;;;;;;;20.28;58.63;100733.41;15864338;28;20040;-63
2021/08/25 18:55:56;;;;;;;1999.90;999.90;;;;;;;20.65;59.15;100716.97;15845807;28;20617;-62
2021/08/25 19:03:28;;;;;;;1999.90;999.90;;;;;;;20.52;60.04;100717.72;15862715;28;20046;-64
2021/08/25 19:11:04;;;;;;;1999.90;999.90;;;;;;;20.27;62.46;100709.13;15833354;28;20039;-65
2021/08/25 19:18:37;;;;;;;1999.90;999.90;;;;;;;19.74;65.14;100701.19;15852041;28;20055;-64
2021/08/25 19:26:11;;;;;;;1999.90;999.90;;;;;;;19.10;70.60;100680.94;15814703;28;20040;-62
2021/08/25 19:33:43;;;;;;;1999.90;999.90;;;;;;;18.72;74.03;100683.81;15819157;28;20086;-65
2021/08/25 19:41:16;;;;;;;1999.90;999.90;;;;;;;18.45;76.70;100674.66;15812352;28;20123;-64
2021/08/25 19:48:50;;;;;;;1999.90;999.90;;;;;;;18.24;79.11;100660.31;15853632;28;20095;-64
2021/08/25 19:56:23;;;;;;;1999.90;999.90;;;;;;;17.99;80.87;100653.53;15845878;28;20067;-60
2021/08/25 20:03:56;;;;;;;1999.90;999.90;;;;;;;17.92;81.93;100640.13;15827621;28;20047;-64
2021/08/25 20:11:32;;;;;;;1999.90;999.90;;;;;;;17.95;82.39;100642.22;15820623;28;20044;-65
2021/08/25 20:19:04;;;;;;;1999.90;999.90;;;;;;;17.91;83.29;100630.06;15831444;28;20114;-64
2021/08/25 20:26:38;;;;;;;1999.90;999.90;;;;;;;17.80;83.91;100624.28;15835283;28;20047;-62
2021/08/25 20:34:12;;;;;;;1999.90;999.90;;;;;;;17.66;84.43;100609.97;15821345;28;20044;-60
2021/08/25 20:41:49;;;;;;;1999.90;999.90;;;;;;;17.70;84.63;100591.09;15843232;28;20058;-61
2021/08/25 20:49:21;;;;;;;1999.90;999.90;;;;;;;17.75;84.36;100593.59;15795461;28;20098;-60
2021/08/25 20:56:55;;;;;;;1999.90;999.90;;;;;;;17.58;84.90;100592.13;15843837;27;20466;-60
2021/08/25 21:04:27;;;;;;;1999.90;999.90;;;;;;;17.79;84.39;100600.06;15844010;28;20035;-60
2021/08/25 21:12:07;;;;;;;1999.90;999.90;;;;;;;17.44;85.78;100572.22;15862030;28;20063;-59
2021/08/25 21:19:39;;;;;;;1999.90;999.90;;;;;;;17.51;85.89;100568.69;15829586;28;20475;-60
2021/08/25 21:27:12;;;;;;;1999.90;999.90;;;;;;;17.66;85.04;100555.53;15776717;28;20218;-63
2021/08/25 21:34:45;;;;;;;1999.90;999.90;;;;;;;17.55;85.47;100549.78;15819127;28;20435;-62
2021/08/25 21:42:19;;;;;;;1999.90;999.90;;;;;;;17.86;84.67;100529.59;15788903;28;20048;-63
2021/08/25 21:49:52;;;;;;;1999.90;999.90;;;;;;;17.81;85.00;100527.13;15738092;28;20097;-63
2021/08/25 21:57:29;;;;;;;1999.90;999.90;;;;;;;17.85;84.70;100513.06;15761710;28;20043;-63
2021/08/25 22:05:02;;;;;;;1999.90;999.90;;;;;;;17.66;85.20;100488.63;15755083;28;20379;-60
2021/08/25 22:12:37;;;;;;;;;;;;;;;17.97;84.96;100501.50;15747857;28;20521;-59
2021/08/25 22:20:09;;;;;;;1999.90;999.90;;;;;;;17.94;84.24;100476.06;15775612;28;19920;-59
2021/08/25 22:27:43;;;;;;;1999.90;999.90;;;;;;;17.79;84.18;100475.09;15791286;28;20055;-61
2021/08/25 22:35:17;;;;;;;1999.90;999.90;;;;;;;17.98;81.73;100466.41;15759579;28;20047;-60
2021/08/25 22:42:50;;;;;;;1999.90;999.90;;;;;;;17.92;81.05;100450.22;15763394;28;20547;-60
2021/08/25 22:50:23;;;;;;;1999.90;999.90;;;;;;;17.60;80.29;100433.75;15749642;28;20105;-59
2021/08/25 22:58:00;;;;;;;1999.90;999.90;;;;;;;17.53;80.01;100420.41;15778852;28;20044;-61
2021/08/25 23:05:36;;;;;;;1999.90;999.90;;;;;;;17.36;80.82;100415.38;15757119;28;20049;-61
2021/08/25 23:13:12;;;;;;;1999.90;999.90;;;;;;;17.52;79.77;100423.63;15749485;28;20059;-59
2021/08/25 23:20:47;;;;;;;1999.90;999.90;;;;;;;17.35;80.49;100424.22;15762818;28;20508;-63
2021/08/25 23:28:20;;;;;;;1999.90;999.90;;;;;;;17.27;81.48;100432.59;15762182;28;20063;-63
2021/08/25 23:35:52;;;;;;;1999.90;999.90;;;;;;;17.29;82.10;100426.56;15778122;28;20131;-60
2021/08/25 23:43:26;;;;;;;1999.90;999.90;;;;;;;17.42;81.59;100432.78;15752316;28;20093;-61
2021/08/25 23:51:02;;;;;;;1999.90;999.90;;;;;;;17.33;81.95;100427.44;15790589;28;20036;-59
2021/08/25 23:58:38;;;;;;;1999.90;999.90;;;;;;;17.39;82.29;100425.88;15796422;28;20048;-62
